createdAt,value
2023-02-11T00:00:07.703Z,1021.32
2023-02-11T00:01:07.672Z,1021.3
2023-02-11T00:02:07.654Z,1021.25
2023-02-11T00:03:07.636Z,1021.25
2023-02-11T00:04:07.571Z,1021.23
2023-02-11T00:05:07.540Z,1021.26
2023-02-11T00:06:07.507Z,1021.24
2023-02-11T00:07:07.484Z,1021.26
2023-02-11T00:08:07.462Z,1021.18
2023-02-11T00:09:07.420Z,1021.19
2023-02-11T00:10:07.377Z,1021.16
2023-02-11T00:11:07.373Z,1021.16
2023-02-11T00:12:07.310Z,1021.1
2023-02-11T00:13:07.279Z,1021.09
2023-02-11T00:14:07.245Z,1020.96
2023-02-11T00:15:07.212Z,1021
2023-02-11T00:16:07.182Z,1021
2023-02-11T00:17:07.145Z,1020.94
2023-02-11T00:18:07.112Z,1020.97
2023-02-11T00:19:07.095Z,1020.99
2023-02-11T00:20:08.270Z,1020.91
2023-02-11T00:21:07.014Z,1020.92
2023-02-11T00:22:06.980Z,1020.91
2023-02-11T00:23:06.952Z,1020.91
2023-02-11T00:24:06.916Z,1020.87
2023-02-11T00:25:06.881Z,1020.91
2023-02-11T00:26:06.848Z,1020.89
2023-02-11T00:27:06.839Z,1020.93
2023-02-11T00:28:06.802Z,1020.98
2023-02-11T00:29:06.750Z,1020.88
2023-02-11T00:30:06.713Z,1020.92
2023-02-11T00:31:06.774Z,1020.98
2023-02-11T00:32:06.646Z,1020.96
2023-02-11T00:33:06.613Z,1020.98
2023-02-11T00:34:06.580Z,1020.96
2023-02-11T00:35:06.548Z,1020.93
2023-02-11T00:36:06.514Z,1021.01
2023-02-11T00:37:06.482Z,1021.01
2023-02-11T00:38:06.444Z,1020.98
2023-02-11T00:39:06.412Z,1021.01
2023-02-11T00:40:06.927Z,1021.02
2023-02-11T00:41:06.345Z,1021.03
2023-02-11T00:42:06.321Z,1021.06
2023-02-11T00:43:06.305Z,1021.12
2023-02-11T00:44:06.264Z,1021.15
2023-02-11T00:45:06.212Z,1021.14
2023-02-11T00:46:06.220Z,1021.11
2023-02-11T00:47:06.147Z,1021.1
2023-02-11T00:48:06.144Z,1021.11
2023-02-11T00:49:06.081Z,1020.99
2023-02-11T00:50:06.050Z,1021.02
2023-02-11T00:51:06.013Z,1020.92
2023-02-11T00:52:05.983Z,1020.89
2023-02-11T00:53:05.947Z,1020.88
2023-02-11T00:54:05.919Z,1020.86
2023-02-11T00:55:05.884Z,1020.79
2023-02-11T00:56:05.862Z,1020.83
2023-02-11T00:57:05.814Z,1020.83
2023-02-11T00:58:05.784Z,1020.87
2023-02-11T00:59:05.776Z,1020.9
2023-02-11T01:00:05.716Z,1020.84
2023-02-11T01:01:05.737Z,1020.8
2023-02-11T01:02:05.652Z,1020.83
2023-02-11T01:03:05.617Z,1020.83
2023-02-11T01:04:05.588Z,1020.87
2023-02-11T01:05:05.591Z,1020.76
2023-02-11T01:06:05.524Z,1020.8
2023-02-11T01:07:05.489Z,1020.79
2023-02-11T01:08:05.460Z,1020.82
2023-02-11T01:09:05.423Z,1020.84
2023-02-11T01:10:05.423Z,1020.87
2023-02-11T01:11:05.359Z,1020.85
2023-02-11T01:12:05.325Z,1020.85
2023-02-11T01:13:05.293Z,1020.86
2023-02-11T01:14:05.271Z,1020.89
2023-02-11T01:15:05.253Z,1020.89
2023-02-11T01:16:05.240Z,1020.94
2023-02-11T01:17:05.161Z,1021.04
2023-02-11T01:18:05.129Z,1020.98
2023-02-11T01:19:05.097Z,1020.97
2023-02-11T01:20:05.070Z,1021.03
2023-02-11T01:21:05.037Z,1021.03
2023-02-11T01:22:05.002Z,1021.06
2023-02-11T01:23:04.968Z,1021.08
2023-02-11T01:24:04.935Z,1020.94
2023-02-11T01:25:04.909Z,1021
2023-02-11T01:26:04.867Z,1020.9
2023-02-11T01:27:04.843Z,1020.99
2023-02-11T01:28:04.907Z,1020.92
2023-02-11T01:29:04.769Z,1021.04
2023-02-11T01:30:04.734Z,1020.94
2023-02-11T01:31:04.824Z,1020.98
2023-02-11T01:32:04.720Z,1021
2023-02-11T01:33:04.638Z,1021.01
2023-02-11T01:34:04.605Z,1021.03
2023-02-11T01:35:04.603Z,1021.01
2023-02-11T01:36:04.548Z,1021.05
2023-02-11T01:37:04.510Z,1021.07
2023-02-11T01:38:04.472Z,1021.13
2023-02-11T01:39:04.442Z,1021.09
2023-02-11T01:40:04.465Z,1021.13
2023-02-11T01:41:04.377Z,1021.04
2023-02-11T01:42:04.349Z,1021.08
2023-02-11T01:43:04.343Z,1021.02
2023-02-11T01:44:04.275Z,1021.1
2023-02-11T01:45:04.255Z,1021.1
2023-02-11T01:46:04.278Z,1021.08
2023-02-11T01:47:04.205Z,1021.03
2023-02-11T01:48:04.145Z,1021.02
2023-02-11T01:49:04.173Z,1021.01
2023-02-11T01:50:04.084Z,1021.05
2023-02-11T01:51:04.050Z,1020.96
2023-02-11T01:52:04.014Z,1020.96
2023-02-11T01:53:03.983Z,1020.98
2023-02-11T01:54:03.948Z,1020.94
2023-02-11T01:55:03.916Z,1020.84
2023-02-11T01:56:03.882Z,1020.8
2023-02-11T01:57:03.851Z,1020.75
2023-02-11T01:58:03.821Z,1020.74
2023-02-11T01:59:03.788Z,1020.76
2023-02-11T02:00:03.755Z,1020.8
2023-02-11T02:01:03.719Z,1020.78
2023-02-11T02:02:03.688Z,1020.76
2023-02-11T02:03:03.695Z,1020.8
2023-02-11T02:04:03.761Z,1020.77
2023-02-11T02:05:03.588Z,1020.78
2023-02-11T02:06:03.556Z,1020.71
2023-02-11T02:07:03.523Z,1020.71
2023-02-11T02:08:03.489Z,1020.74
2023-02-11T02:09:03.458Z,1020.78
2023-02-11T02:10:03.424Z,1020.84
2023-02-11T02:11:03.443Z,1020.77
2023-02-11T02:12:03.356Z,1020.79
2023-02-11T02:13:03.349Z,1020.68
2023-02-11T02:14:03.297Z,1020.65
2023-02-11T02:15:03.260Z,1020.6
2023-02-11T02:16:03.306Z,1020.55
2023-02-11T02:17:03.197Z,1020.42
2023-02-11T02:18:03.171Z,1020.38
2023-02-11T02:19:03.175Z,1020.31
2023-02-11T02:20:03.089Z,1020.2
2023-02-11T02:21:03.059Z,1020.21
2023-02-11T02:22:03.034Z,1020.18
2023-02-11T02:23:03.003Z,1020.14
2023-02-11T02:24:02.964Z,1020.21
2023-02-11T02:25:02.926Z,1020.16
2023-02-11T02:26:02.894Z,1020.27
2023-02-11T02:27:02.889Z,1020.23
2023-02-11T02:28:02.852Z,1020.34
2023-02-11T02:29:02.792Z,1020.36
2023-02-11T02:30:02.761Z,1020.32
2023-02-11T02:31:02.784Z,1020.35
2023-02-11T02:32:02.696Z,1020.34
2023-02-11T02:33:13.361Z,1020.38
2023-02-11T02:34:02.635Z,1020.41
2023-02-11T02:35:02.624Z,1020.46
2023-02-11T02:36:02.566Z,1020.49
2023-02-11T02:37:02.529Z,1020.49
2023-02-11T02:38:02.499Z,1020.43
2023-02-11T02:39:02.464Z,1020.38
2023-02-11T02:40:02.435Z,1020.41
2023-02-11T02:41:02.402Z,1020.45
2023-02-11T02:42:02.369Z,1020.43
2023-02-11T02:43:02.344Z,1020.44
2023-02-11T02:44:02.302Z,1020.43
2023-02-11T02:45:02.278Z,1020.42
2023-02-11T02:46:02.239Z,1020.41
2023-02-11T02:47:02.334Z,1020.39
2023-02-11T02:48:02.175Z,1020.39
2023-02-11T02:49:02.137Z,1020.34
2023-02-11T02:50:02.105Z,1020.34
2023-02-11T02:51:02.101Z,1020.39
2023-02-11T02:52:02.043Z,1020.36
2023-02-11T02:53:02.012Z,1020.38
2023-02-11T02:54:01.990Z,1020.42
2023-02-11T02:55:01.949Z,1020.44
2023-02-11T02:56:01.911Z,1020.38
2023-02-11T02:57:01.881Z,1020.41
2023-02-11T02:58:01.847Z,1020.36
2023-02-11T02:59:01.818Z,1020.38
2023-02-11T03:00:01.778Z,1020.4
2023-02-11T03:01:01.839Z,1020.39
2023-02-11T03:02:01.715Z,1020.31
2023-02-11T03:03:01.681Z,1020.34
2023-02-11T03:04:01.696Z,1020.29
2023-02-11T03:05:01.621Z,1020.26
2023-02-11T03:06:01.586Z,1020.22
2023-02-11T03:07:01.612Z,1020.15
2023-02-11T03:08:01.541Z,1020.17
2023-02-11T03:09:01.484Z,1020.15
2023-02-11T03:10:01.476Z,1020.17
2023-02-11T03:11:01.423Z,1020.22
2023-02-11T03:12:01.387Z,1020.25
2023-02-11T03:13:01.355Z,1020.24
2023-02-11T03:14:01.321Z,1020.31
2023-02-11T03:15:01.287Z,1020.29
2023-02-11T03:16:01.294Z,1020.24
2023-02-11T03:17:01.225Z,1020.31
2023-02-11T03:18:01.189Z,1020.36
2023-02-11T03:19:01.162Z,1020.36
2023-02-11T03:20:01.134Z,1020.31
2023-02-11T03:21:01.095Z,1020.3
2023-02-11T03:22:01.059Z,1020.28
2023-02-11T03:23:01.051Z,1020.29
2023-02-11T03:24:01.000Z,1020.39
2023-02-11T03:25:00.962Z,1020.43
2023-02-11T03:26:00.928Z,1020.46
2023-02-11T03:27:00.896Z,1020.48
2023-02-11T03:28:00.919Z,1020.55
2023-02-11T03:29:00.828Z,1020.47
2023-02-11T03:30:00.805Z,1020.47
2023-02-11T03:31:00.807Z,1020.46
2023-02-11T03:32:00.770Z,1020.48
2023-02-11T03:33:00.699Z,1020.49
2023-02-11T03:34:00.666Z,1020.47
2023-02-11T03:35:00.632Z,1020.44
2023-02-11T03:36:00.599Z,1020.53
2023-02-11T03:37:00.567Z,1020.51
2023-02-11T03:38:00.539Z,1020.55
2023-02-11T03:39:00.530Z,1020.64
2023-02-11T03:40:00.469Z,1020.51
2023-02-11T03:41:00.435Z,1020.41
2023-02-11T03:42:00.401Z,1020.42
2023-02-11T03:43:00.370Z,1020.41
2023-02-11T03:44:00.336Z,1020.43
2023-02-11T03:45:00.304Z,1020.36
2023-02-11T03:46:00.429Z,1020.34
2023-02-11T03:47:00.238Z,1020.31
2023-02-11T03:48:00.204Z,1020.32
2023-02-11T03:49:00.173Z,1020.32
2023-02-11T03:50:00.139Z,1020.38
2023-02-11T03:51:00.110Z,1020.31
2023-02-11T03:52:00.086Z,1020.4
2023-02-11T03:53:00.040Z,1020.29
2023-02-11T03:54:00.007Z,1020.3
2023-02-11T03:54:59.998Z,1020.33
2023-02-11T03:55:59.976Z,1020.28
2023-02-11T03:56:59.910Z,1020.4
2023-02-11T03:57:59.877Z,1020.32
2023-02-11T03:58:59.854Z,1020.35
2023-02-11T03:59:59.824Z,1020.34
2023-02-11T04:00:59.864Z,1020.31
2023-02-11T04:01:59.764Z,1020.39
2023-02-11T04:02:59.743Z,1020.36
2023-02-11T04:03:59.679Z,1020.32
2023-02-11T04:04:59.643Z,1020.36
2023-02-11T04:05:59.613Z,1020.34
2023-02-11T04:06:59.583Z,1020.32
2023-02-11T04:07:59.554Z,1020.33
2023-02-11T04:08:59.513Z,1020.34
2023-02-11T04:09:59.480Z,1020.28
2023-02-11T04:10:59.477Z,1020.3
2023-02-11T04:11:59.416Z,1020.26
2023-02-11T04:12:59.384Z,1020.21
2023-02-11T04:13:59.349Z,1020.22
2023-02-11T04:14:59.315Z,1020.21
2023-02-11T04:15:59.348Z,1020.18
2023-02-11T04:16:59.247Z,1020.21
2023-02-11T04:17:59.217Z,1020.2
2023-02-11T04:18:59.183Z,1020.12
2023-02-11T04:19:59.171Z,1020.16
2023-02-11T04:20:59.130Z,1020.14
2023-02-11T04:21:59.088Z,1020.19
2023-02-11T04:22:59.053Z,1020.18
2023-02-11T04:23:59.017Z,1020.22
2023-02-11T04:24:58.984Z,1020.16
2023-02-11T04:25:58.958Z,1020.2
2023-02-11T04:26:58.944Z,1020.16
2023-02-11T04:27:58.931Z,1020.21
2023-02-11T04:28:58.851Z,1020.23
2023-02-11T04:29:58.821Z,1020.29
2023-02-11T04:30:58.807Z,1020.23
2023-02-11T04:31:58.823Z,1020.32
2023-02-11T04:32:58.732Z,1020.4
2023-02-11T04:33:58.689Z,1020.44
2023-02-11T04:34:58.664Z,1020.51
2023-02-11T04:35:58.625Z,1020.55
2023-02-11T04:36:58.587Z,1020.57
2023-02-11T04:37:58.557Z,1020.53
2023-02-11T04:38:58.523Z,1020.57
2023-02-11T04:39:58.488Z,1020.56
2023-02-11T04:40:58.454Z,1020.55
2023-02-11T04:41:58.426Z,1020.55
2023-02-11T04:42:58.411Z,1020.53
2023-02-11T04:43:58.357Z,1020.54
2023-02-11T04:44:58.322Z,1020.54
2023-02-11T04:45:58.393Z,1020.5
2023-02-11T04:46:58.254Z,1020.52
2023-02-11T04:47:58.224Z,1020.42
2023-02-11T04:48:58.199Z,1020.39
2023-02-11T04:49:58.157Z,1020.39
2023-02-11T04:50:58.122Z,1020.35
2023-02-11T04:51:58.091Z,1020.37
2023-02-11T04:52:58.061Z,1020.32
2023-02-11T04:53:58.026Z,1020.32
2023-02-11T04:54:57.989Z,1020.32
2023-02-11T04:55:57.962Z,1020.33
2023-02-11T04:56:57.925Z,1020.35
2023-02-11T04:57:57.889Z,1020.37
2023-02-11T04:58:57.882Z,1020.35
2023-02-11T04:59:57.830Z,1020.43
2023-02-11T05:00:57.808Z,1020.42
2023-02-11T05:01:57.773Z,1020.36
2023-02-11T05:02:57.724Z,1020.37
2023-02-11T05:03:57.722Z,1020.4
2023-02-11T05:04:57.658Z,1020.43
2023-02-11T05:05:57.622Z,1020.37
2023-02-11T05:06:58.696Z,1020.38
2023-02-11T05:07:57.560Z,1020.34
2023-02-11T05:08:57.523Z,1020.28
2023-02-11T05:09:57.489Z,1020.38
2023-02-11T05:10:57.463Z,1020.34
2023-02-11T05:11:57.421Z,1020.37
2023-02-11T05:12:57.390Z,1020.32
2023-02-11T05:13:57.355Z,1020.31
2023-02-11T05:14:57.346Z,1020.36
2023-02-11T05:15:57.287Z,1020.34
2023-02-11T05:16:57.275Z,1020.36
2023-02-11T05:17:57.226Z,1020.4
2023-02-11T05:18:57.188Z,1020.39
2023-02-11T05:19:57.304Z,1020.32
2023-02-11T05:20:57.122Z,1020.39
2023-02-11T05:22:02.853Z,1020.36
2023-02-11T05:22:57.057Z,1020.37
2023-02-11T05:23:57.043Z,1020.36
2023-02-11T05:24:56.990Z,1020.32
2023-02-11T05:25:56.954Z,1020.27
2023-02-11T05:26:56.922Z,1020.25
2023-02-11T05:27:56.890Z,1020.27
2023-02-11T05:28:56.857Z,1020.24
2023-02-11T05:29:56.820Z,1020.26
2023-02-11T05:30:56.852Z,1020.16
2023-02-11T05:31:56.753Z,1020.23
2023-02-11T05:32:56.722Z,1020.24
2023-02-11T05:33:56.687Z,1020.32
2023-02-11T05:34:56.655Z,1020.24
2023-02-11T05:35:56.621Z,1020.35
2023-02-11T05:36:56.616Z,1020.33
2023-02-11T05:37:56.554Z,1020.26
2023-02-11T05:38:56.527Z,1020.37
2023-02-11T05:39:56.487Z,1020.31
2023-02-11T05:40:56.454Z,1020.4
2023-02-11T05:41:56.422Z,1020.32
2023-02-11T05:42:56.390Z,1020.34
2023-02-11T05:43:56.362Z,1020.32
2023-02-11T05:44:56.322Z,1020.33
2023-02-11T05:45:56.306Z,1020.36
2023-02-11T05:46:56.279Z,1020.29
2023-02-11T05:47:56.224Z,1020.27
2023-02-11T05:48:56.186Z,1020.24
2023-02-11T05:49:56.167Z,1020.18
2023-02-11T05:50:56.119Z,1020.25
2023-02-11T05:51:56.090Z,1020.21
2023-02-11T05:52:56.058Z,1020.27
2023-02-11T05:53:56.022Z,1020.24
2023-02-11T05:54:55.987Z,1020.22
2023-02-11T05:55:55.956Z,1020.21
2023-02-11T05:56:55.924Z,1020.23
2023-02-11T05:57:55.888Z,1020.26
2023-02-11T05:58:55.855Z,1020.28
2023-02-11T05:59:55.821Z,1020.29
2023-02-11T06:00:55.787Z,1020.31
2023-02-11T06:01:55.755Z,1020.37
2023-02-11T06:02:55.770Z,1020.36
2023-02-11T06:03:55.793Z,1020.36
2023-02-11T06:04:55.658Z,1020.35
2023-02-11T06:05:55.634Z,1020.32
2023-02-11T06:06:55.587Z,1020.32
2023-02-11T06:07:55.558Z,1020.34
2023-02-11T06:08:55.521Z,1020.34
2023-02-11T06:09:55.488Z,1020.38
2023-02-11T06:10:55.458Z,1020.32
2023-02-11T06:11:55.422Z,1020.38
2023-02-11T06:12:55.393Z,1020.37
2023-02-11T06:13:55.355Z,1020.37
2023-02-11T06:14:55.323Z,1020.36
2023-02-11T06:15:55.350Z,1020.39
2023-02-11T06:16:55.256Z,1020.34
2023-02-11T06:17:55.235Z,1020.42
2023-02-11T06:18:55.222Z,1020.4
2023-02-11T06:19:55.163Z,1020.39
2023-02-11T06:20:55.169Z,1020.42
2023-02-11T06:21:55.125Z,1020.41
2023-02-11T06:22:55.055Z,1020.37
2023-02-11T06:23:55.025Z,1020.38
2023-02-11T06:25:01.510Z,1020.34
2023-02-11T06:25:54.961Z,1020.33
2023-02-11T06:26:54.987Z,1020.28
2023-02-11T06:27:55.138Z,1020.26
2023-02-11T06:28:54.858Z,1020.27
2023-02-11T06:29:54.825Z,1020.31
2023-02-11T06:30:54.839Z,1020.27
2023-02-11T06:31:54.894Z,1020.25
2023-02-11T06:32:54.825Z,1020.31
2023-02-11T06:33:54.694Z,1020.26
2023-02-11T06:34:54.688Z,1020.31
2023-02-11T06:35:54.631Z,1020.26
2023-02-11T06:36:54.602Z,1020.29
2023-02-11T06:37:54.560Z,1020.31
2023-02-11T06:38:54.534Z,1020.3
2023-02-11T06:39:54.493Z,1020.24
2023-02-11T06:40:54.464Z,1020.25
2023-02-11T06:41:54.427Z,1020.27
2023-02-11T06:42:54.396Z,1020.19
2023-02-11T06:43:54.362Z,1020.21
2023-02-11T06:44:54.331Z,1020.22
2023-02-11T06:45:54.295Z,1020.19
2023-02-11T06:46:54.317Z,1020.21
2023-02-11T06:47:54.235Z,1020.28
2023-02-11T06:48:54.199Z,1020.31
2023-02-11T06:49:54.161Z,1020.33
2023-02-11T06:50:54.156Z,1020.4
2023-02-11T06:51:54.095Z,1020.33
2023-02-11T06:52:54.062Z,1020.4
2023-02-11T06:53:54.036Z,1020.41
2023-02-11T06:54:54.006Z,1020.38
2023-02-11T06:55:53.964Z,1020.4
2023-02-11T06:56:53.932Z,1020.38
2023-02-11T06:57:53.895Z,1020.43
2023-02-11T06:58:53.867Z,1020.47
2023-02-11T06:59:53.831Z,1020.47
2023-02-11T07:00:53.798Z,1020.52
2023-02-11T07:01:53.788Z,1020.48
2023-02-11T07:02:53.857Z,1020.46
2023-02-11T07:03:53.749Z,1020.48
2023-02-11T07:04:53.664Z,1020.41
2023-02-11T07:05:53.630Z,1020.38
2023-02-11T07:06:53.627Z,1020.41
2023-02-11T07:07:53.565Z,1020.4
2023-02-11T07:08:53.533Z,1020.39
2023-02-11T07:09:53.519Z,1020.38
2023-02-11T07:10:53.469Z,1020.42
2023-02-11T07:11:53.431Z,1020.42
2023-02-11T07:12:53.400Z,1020.44
2023-02-11T07:13:53.369Z,1020.34
2023-02-11T07:14:53.336Z,1020.43
2023-02-11T07:15:53.590Z,1020.42
2023-02-11T07:16:53.270Z,1020.41
2023-02-11T07:17:53.240Z,1020.46
2023-02-11T07:18:53.201Z,1020.44
2023-02-11T07:19:53.168Z,1020.45
2023-02-11T07:20:53.143Z,1020.42
2023-02-11T07:21:53.104Z,1020.45
2023-02-11T07:22:53.171Z,1020.44
2023-02-11T07:23:53.034Z,1020.48
2023-02-11T07:24:53.003Z,1020.42
2023-02-11T07:25:53.052Z,1020.43
2023-02-11T07:26:52.937Z,1020.4
2023-02-11T07:27:52.912Z,1020.42
2023-02-11T07:28:52.869Z,1020.33
2023-02-11T07:29:52.839Z,1020.48
2023-02-11T07:30:52.840Z,1020.5
2023-02-11T07:31:52.812Z,1020.48
2023-02-11T07:32:52.736Z,1020.56
2023-02-11T07:33:52.710Z,1020.58
2023-02-11T07:34:52.721Z,1020.65
2023-02-11T07:35:52.983Z,1020.6
2023-02-11T07:36:52.605Z,1020.66
2023-02-11T07:37:52.574Z,1020.65
2023-02-11T07:38:52.562Z,1020.63
2023-02-11T07:39:52.509Z,1020.63
2023-02-11T07:40:52.472Z,1020.6
2023-02-11T07:41:52.439Z,1020.61
2023-02-11T07:42:52.404Z,1020.61
2023-02-11T07:43:52.377Z,1020.62
2023-02-11T07:44:52.338Z,1020.55
2023-02-11T07:45:52.476Z,1020.48
2023-02-11T07:46:52.320Z,1020.63
2023-02-11T07:47:52.244Z,1020.55
2023-02-11T07:48:52.206Z,1020.6
2023-02-11T07:49:53.951Z,1020.56
2023-02-11T07:50:52.143Z,1020.64
2023-02-11T07:51:52.118Z,1020.57
2023-02-11T07:52:52.074Z,1020.61
2023-02-11T07:53:52.073Z,1020.62
2023-02-11T07:54:52.032Z,1020.61
2023-02-11T07:55:52.195Z,1020.61
2023-02-11T07:56:51.948Z,1020.62
2023-02-11T07:57:51.910Z,1020.67
2023-02-11T07:58:51.878Z,1020.59
2023-02-11T07:59:51.845Z,1020.61
2023-02-11T08:00:51.839Z,1020.65
2023-02-11T08:01:51.838Z,1020.61
2023-02-11T08:02:51.744Z,1020.72
2023-02-11T08:03:51.863Z,1020.72
2023-02-11T08:04:51.679Z,1020.72
2023-02-11T08:05:51.923Z,1020.66
2023-02-11T08:06:51.612Z,1020.68
2023-02-11T08:07:51.581Z,1020.67
2023-02-11T08:08:51.555Z,1020.73
2023-02-11T08:09:51.524Z,1020.7
2023-02-11T08:10:51.832Z,1020.71
2023-02-11T08:11:51.453Z,1020.73
2023-02-11T08:12:51.415Z,1020.75
2023-02-11T08:13:51.382Z,1020.79
2023-02-11T08:14:51.365Z,1020.74
2023-02-11T08:15:51.647Z,1020.75
2023-02-11T08:16:51.345Z,1020.8
2023-02-11T08:17:51.250Z,1020.76
2023-02-11T08:18:51.225Z,1020.86
2023-02-11T08:19:51.182Z,1020.84
2023-02-11T08:20:51.521Z,1020.86
2023-02-11T08:21:51.117Z,1020.82
2023-02-11T08:22:51.084Z,1020.89
2023-02-11T08:23:51.064Z,1020.86
2023-02-11T08:24:52.431Z,1020.85
2023-02-11T08:25:50.984Z,1020.9
2023-02-11T08:26:50.977Z,1020.85
2023-02-11T08:27:50.918Z,1020.87
2023-02-11T08:28:50.888Z,1020.88
2023-02-11T08:29:50.852Z,1020.89
2023-02-11T08:30:51.081Z,1020.87
2023-02-11T08:31:50.811Z,1020.92
2023-02-11T08:32:50.755Z,1020.93
2023-02-11T08:33:50.735Z,1021
2023-02-11T08:34:50.695Z,1021.01
2023-02-11T08:35:50.655Z,1021.02
2023-02-11T08:36:50.634Z,1021.04
2023-02-11T08:37:50.590Z,1021.05
2023-02-11T08:38:50.563Z,1021.1
2023-02-11T08:39:50.524Z,1021.08
2023-02-11T08:40:50.892Z,1021.1
2023-02-11T08:41:50.459Z,1021.13
2023-02-11T08:42:50.451Z,1021.14
2023-02-11T08:43:50.393Z,1021.17
2023-02-11T08:44:50.364Z,1021.19
2023-02-11T08:45:50.678Z,1021.17
2023-02-11T08:46:50.299Z,1021.18
2023-02-11T08:47:50.262Z,1021.21
2023-02-11T08:48:50.232Z,1021.17
2023-02-11T08:49:50.201Z,1021.2
2023-02-11T08:50:50.167Z,1021.15
2023-02-11T08:51:50.152Z,1021.16
2023-02-11T08:52:50.112Z,1021.14
2023-02-11T08:53:50.069Z,1021.15
2023-02-11T08:54:50.036Z,1021.12
2023-02-11T08:55:50.322Z,1021.12
2023-02-11T08:56:49.971Z,1021.13
2023-02-11T08:57:49.938Z,1021.13
2023-02-11T08:58:49.930Z,1021.13
2023-02-11T08:59:49.872Z,1021.12
2023-02-11T09:00:50.262Z,1021.16
2023-02-11T09:01:49.880Z,1021.19
2023-02-11T09:02:49.775Z,1021.17
2023-02-11T09:03:49.749Z,1021.2
2023-02-11T09:04:49.714Z,1021.24
2023-02-11T09:05:49.676Z,1021.24
2023-02-11T09:06:49.648Z,1021.27
2023-02-11T09:07:49.615Z,1021.26
2023-02-11T09:08:49.661Z,1021.26
2023-02-11T09:09:49.551Z,1021.22
2023-02-11T09:10:49.868Z,1021.25
2023-02-11T09:11:49.485Z,1021.25
2023-02-11T09:12:49.450Z,1021.28
2023-02-11T09:13:50.173Z,1021.27
2023-02-11T09:14:49.420Z,1021.32
2023-02-11T09:15:49.355Z,1021.31
2023-02-11T09:16:49.486Z,1021.36
2023-02-11T09:17:49.290Z,1021.35
2023-02-11T09:18:49.260Z,1021.36
2023-02-11T09:19:49.227Z,1021.39
2023-02-11T09:20:49.345Z,1021.35
2023-02-11T09:21:49.176Z,1021.39
2023-02-11T09:22:49.128Z,1021.33
2023-02-11T09:23:49.098Z,1021.32
2023-02-11T09:24:49.064Z,1021.33
2023-02-11T09:25:49.319Z,1021.33
2023-02-11T09:26:49.000Z,1021.36
2023-02-11T09:27:48.970Z,1021.36
2023-02-11T09:28:48.952Z,1021.34
2023-02-11T09:29:48.905Z,1021.38
2023-02-11T09:30:49.123Z,1021.34
2023-02-11T09:31:49.027Z,1021.39
2023-02-11T09:32:48.813Z,1021.39
2023-02-11T09:33:48.791Z,1021.42
2023-02-11T09:34:48.744Z,1021.43
2023-02-11T09:35:48.715Z,1021.4
2023-02-11T09:36:48.682Z,1021.43
2023-02-11T09:37:48.656Z,1021.44
2023-02-11T09:38:48.627Z,1021.46
2023-02-11T09:39:48.587Z,1021.46
2023-02-11T09:40:48.768Z,1021.5
2023-02-11T09:41:48.522Z,1021.54
2023-02-11T09:42:48.490Z,1021.53
2023-02-11T09:43:48.463Z,1021.62
2023-02-11T09:44:48.428Z,1021.55
2023-02-11T09:45:48.436Z,1021.57
2023-02-11T09:46:48.385Z,1021.52
2023-02-11T09:47:48.346Z,1021.54
2023-02-11T09:48:48.308Z,1021.57
2023-02-11T09:49:48.280Z,1021.57
2023-02-11T09:50:48.329Z,1021.59
2023-02-11T09:51:48.212Z,1021.53
2023-02-11T09:52:48.180Z,1021.63
2023-02-11T09:53:48.144Z,1021.57
2023-02-11T09:54:48.113Z,1021.64
2023-02-11T09:55:48.085Z,1021.68
2023-02-11T09:56:48.047Z,1021.63
2023-02-11T09:57:48.034Z,1021.65
2023-02-11T09:58:47.986Z,1021.65
2023-02-11T09:59:47.956Z,1021.62
2023-02-11T10:00:47.942Z,1021.57
2023-02-11T10:01:47.962Z,1021.64
2023-02-11T10:02:47.888Z,1021.62
2023-02-11T10:03:47.828Z,1021.73
2023-02-11T10:04:47.797Z,1021.59
2023-02-11T10:05:47.767Z,1021.62
2023-02-11T10:06:47.886Z,1021.6
2023-02-11T10:07:47.709Z,1021.61
2023-02-11T10:08:47.677Z,1021.62
2023-02-11T10:09:47.639Z,1021.6
2023-02-11T10:10:47.612Z,1021.62
2023-02-11T10:11:47.577Z,1021.56
2023-02-11T10:12:47.557Z,1021.61
2023-02-11T10:13:47.521Z,1021.62
2023-02-11T10:14:47.485Z,1021.64
2023-02-11T10:15:47.560Z,1021.67
2023-02-11T10:16:47.424Z,1021.68
2023-02-11T10:17:47.390Z,1021.78
2023-02-11T10:18:47.389Z,1021.73
2023-02-11T10:19:47.328Z,1021.73
2023-02-11T10:20:47.302Z,1021.74
2023-02-11T10:21:47.269Z,1021.7
2023-02-11T10:22:47.243Z,1021.79
2023-02-11T10:23:47.205Z,1021.71
2023-02-11T10:24:47.175Z,1021.74
2023-02-11T10:25:47.145Z,1021.7
2023-02-11T10:26:47.113Z,1021.68
2023-02-11T10:27:47.087Z,1021.75
2023-02-11T10:28:47.056Z,1021.77
2023-02-11T10:29:47.018Z,1021.73
2023-02-11T10:30:47.102Z,1021.75
2023-02-11T10:31:46.986Z,1021.81
2023-02-11T10:32:46.928Z,1021.82
2023-02-11T10:33:46.894Z,1021.81
2023-02-11T10:34:46.890Z,1021.84
2023-02-11T10:35:46.833Z,1021.81
2023-02-11T10:36:46.807Z,1021.81
2023-02-11T10:37:46.774Z,1021.84
2023-02-11T10:38:46.740Z,1021.93
2023-02-11T10:39:46.712Z,1021.85
2023-02-11T10:40:46.680Z,1021.85
2023-02-11T10:41:46.646Z,1021.89
2023-02-11T10:42:46.623Z,1021.85
2023-02-11T10:43:46.587Z,1021.83
2023-02-11T10:44:46.555Z,1021.9
2023-02-11T10:45:46.522Z,1021.9
2023-02-11T10:46:46.564Z,1021.86
2023-02-11T10:47:46.460Z,1021.92
2023-02-11T10:48:46.433Z,1021.97
2023-02-11T10:49:46.399Z,1021.91
2023-02-11T10:50:46.397Z,1021.82
2023-02-11T10:51:46.337Z,1021.97
2023-02-11T10:52:46.310Z,1022.03
2023-02-11T10:53:46.277Z,1022.01
2023-02-11T10:54:46.247Z,1022.04
2023-02-11T10:55:46.217Z,1022.05
2023-02-11T10:56:46.184Z,1022
2023-02-11T10:57:46.154Z,1022.01
2023-02-11T10:58:46.123Z,1022.05
2023-02-11T10:59:46.094Z,1022.02
2023-02-11T11:00:46.061Z,1022.05
2023-02-11T11:01:46.130Z,1022.02
2023-02-11T11:02:45.996Z,1022.03
2023-02-11T11:03:45.969Z,1022.04
2023-02-11T11:04:45.975Z,1021.99
2023-02-11T11:05:45.906Z,1022.06
2023-02-11T11:06:45.899Z,1022.02
2023-02-11T11:07:45.846Z,1022.06
2023-02-11T11:08:45.814Z,1022.16
2023-02-11T11:09:45.784Z,1022.05
2023-02-11T11:10:46.194Z,1022.04
2023-02-11T11:11:45.724Z,1021.98
2023-02-11T11:12:45.693Z,1021.98
2023-02-11T11:13:45.662Z,1021.99
2023-02-11T11:14:45.631Z,1022.02
2023-02-11T11:15:45.672Z,1022.03
2023-02-11T11:16:45.570Z,1022.04
2023-02-11T11:17:45.540Z,1022.05
2023-02-11T11:18:45.511Z,1022.09
2023-02-11T11:19:45.486Z,1022.08
2023-02-11T11:20:45.447Z,1022.06
2023-02-11T11:21:45.429Z,1022.03
2023-02-11T11:22:45.437Z,1022.08
2023-02-11T11:23:45.359Z,1022.11
2023-02-11T11:24:45.341Z,1022.07
2023-02-11T11:25:45.298Z,1022.06
2023-02-11T11:26:45.264Z,1022.09
2023-02-11T11:27:45.235Z,1022.07
2023-02-11T11:28:45.202Z,1022.07
2023-02-11T11:29:45.171Z,1022.07
2023-02-11T11:30:45.181Z,1022.15
2023-02-11T11:31:45.181Z,1022.1
2023-02-11T11:32:45.079Z,1022.07
2023-02-11T11:33:45.050Z,1022.19
2023-02-11T11:34:45.022Z,1022.14
2023-02-11T11:35:44.987Z,1022.2
2023-02-11T11:36:44.954Z,1022.25
2023-02-11T11:37:44.925Z,1022.12
2023-02-11T11:38:44.915Z,1022.21
2023-02-11T11:39:44.863Z,1022.08
2023-02-11T11:40:44.830Z,1022.09
2023-02-11T11:41:44.800Z,1022.1
2023-02-11T11:42:44.766Z,1022.05
2023-02-11T11:43:44.735Z,1022.07
2023-02-11T11:44:44.707Z,1022
2023-02-11T11:45:44.673Z,1022.02
2023-02-11T11:46:44.694Z,1022
2023-02-11T11:47:44.615Z,1022.05
2023-02-11T11:48:44.582Z,1022.01
2023-02-11T11:49:44.547Z,1022.07
2023-02-11T11:50:44.518Z,1022.06
2023-02-11T11:51:44.488Z,1022.09
2023-02-11T11:52:44.458Z,1022.11
2023-02-11T11:53:44.425Z,1022.13
2023-02-11T11:54:44.420Z,1022.14
2023-02-11T11:55:44.364Z,1022.1
2023-02-11T11:56:44.335Z,1022.14
2023-02-11T11:57:44.306Z,1022.11
2023-02-11T11:58:44.282Z,1022.04
2023-02-11T11:59:44.250Z,1022.07
2023-02-11T12:00:44.216Z,1022.02
2023-02-11T12:01:44.260Z,1022.06
2023-02-11T12:02:44.185Z,1022
2023-02-11T12:03:44.120Z,1021.97
2023-02-11T12:04:44.089Z,1021.95
2023-02-11T12:05:44.058Z,1021.91
2023-02-11T12:06:44.031Z,1021.88
2023-02-11T12:07:44.008Z,1021.85